Terminal Aerodrome Forecast
Issued by NWS

Current Version | Previous Version | Text Only | Print | Product List | Glossary Off
Versions: 1 2 3 4 5 6 7 8 9 10 11 12 13 14 15 16 17 18 19 20

000
FTUS41 KILN 291130
TAFLUK
TAF
KLUK 291130Z 2912/3012 00000KT 1SM BR BKN004
     FM291300 22003KT P6SM SCT040 BKN150
     FM291800 28008KT P6SM VCTS BKN040CB
      TEMPO 2919/2921 4SM -TSRA BKN035CB
     FM292300 30004KT P6SM SCT120
     FM300600 34004KT P6SM SCT020
      TEMPO 3007/3011 3SM BR=

USA.gov is the U.S. government's official web portal to all federal, state and local government web resources and services.